createdAt,value
2022-10-14T00:00:05.638Z,28.00
2022-10-14T00:05:05.640Z,26.90
2022-10-14T00:10:05.604Z,26.30
2022-10-14T00:15:05.500Z,26.40
2022-10-14T00:20:05.401Z,26.80
2022-10-14T00:25:05.325Z,27.40
2022-10-14T00:30:06.012Z,27.60
2022-10-14T00:35:05.190Z,24.50
2022-10-14T00:40:05.142Z,25.70
2022-10-14T00:45:05.063Z,24.80
2022-10-14T00:50:05.044Z,24.90
2022-10-14T00:55:05.113Z,22.70
2022-10-14T01:00:04.837Z,23.10
2022-10-14T01:05:04.799Z,23.90
2022-10-14T01:10:04.773Z,23.10
2022-10-14T01:15:04.653Z,22.00
2022-10-14T01:20:04.584Z,21.90
2022-10-14T01:25:04.565Z,23.00
2022-10-14T01:30:04.471Z,23.30
2022-10-14T01:35:04.363Z,22.60
2022-10-14T01:40:11.407Z,22.40
2022-10-14T01:45:04.215Z,22.70
2022-10-14T01:50:04.162Z,22.20
2022-10-14T01:55:04.090Z,22.00
2022-10-14T02:00:04.437Z,20.90
2022-10-14T02:05:03.967Z,21.00
2022-10-14T02:10:03.867Z,20.00
2022-10-14T02:15:03.924Z,19.80
2022-10-14T02:20:03.855Z,20.80
2022-10-14T02:25:03.730Z,21.60
2022-10-14T02:30:03.710Z,21.20
2022-10-14T02:35:03.705Z,21.30
2022-10-14T02:40:03.552Z,22.50
2022-10-14T02:45:03.456Z,21.10
2022-10-14T02:50:03.366Z,21.70
2022-10-14T02:55:03.370Z,22.70
2022-10-14T03:00:03.249Z,22.40
2022-10-14T03:05:03.198Z,23.20
2022-10-14T03:10:03.085Z,22.70
2022-10-14T03:15:03.094Z,23.70
2022-10-14T03:20:02.992Z,23.30
2022-10-14T03:25:02.956Z,24.50
2022-10-14T03:30:02.859Z,23.90
2022-10-14T03:35:02.796Z,23.10
2022-10-14T03:40:02.830Z,23.30
2022-10-14T03:45:02.630Z,23.10
2022-10-14T03:50:02.554Z,24.30
2022-10-14T03:55:02.570Z,24.00
2022-10-14T04:00:02.488Z,24.00
2022-10-14T04:05:02.379Z,25.30
2022-10-14T04:10:02.502Z,24.30
2022-10-14T04:15:02.209Z,24.70
2022-10-14T04:20:02.147Z,25.10
2022-10-14T04:25:02.079Z,25.30
2022-10-14T04:30:02.009Z,25.10
2022-10-14T04:35:01.943Z,25.20
2022-10-14T04:40:01.882Z,24.30
2022-10-14T04:45:01.812Z,23.90
2022-10-14T04:50:01.745Z,26.40
2022-10-14T04:55:02.421Z,26.30
2022-10-14T05:00:01.693Z,26.10
2022-10-14T05:05:01.621Z,26.30
2022-10-14T05:10:01.485Z,26.60
2022-10-14T05:15:09.064Z,26.60
2022-10-14T05:20:01.336Z,24.20
2022-10-14T05:25:01.264Z,26.50
2022-10-14T05:30:01.245Z,26.40
2022-10-14T05:35:01.138Z,26.70
2022-10-14T05:40:01.117Z,27.00
2022-10-14T05:45:01.025Z,26.70
2022-10-14T05:50:00.984Z,25.50
2022-10-14T05:55:00.870Z,27.90
2022-10-14T06:00:00.820Z,26.80
2022-10-14T06:05:00.778Z,24.20
2022-10-14T06:10:00.684Z,25.70
2022-10-14T06:15:00.601Z,24.50
2022-10-14T06:20:00.544Z,25.70
2022-10-14T06:25:04.241Z,25.10
2022-10-14T06:30:00.416Z,25.00
2022-10-14T06:35:00.358Z,24.90
2022-10-14T06:40:00.296Z,25.20
2022-10-14T06:45:00.216Z,25.40
2022-10-14T06:50:00.157Z,24.30
2022-10-14T06:55:00.091Z,25.20
2022-10-14T06:59:59.998Z,24.40
2022-10-14T07:04:59.928Z,24.40
2022-10-14T07:09:59.859Z,24.00
2022-10-14T07:14:59.818Z,23.80
2022-10-14T07:19:59.717Z,22.90
2022-10-14T07:24:59.716Z,23.70
2022-10-14T07:29:59.585Z,25.40
2022-10-14T07:34:59.512Z,24.10
2022-10-14T07:39:59.451Z,22.70
2022-10-14T07:44:59.384Z,21.40
2022-10-14T07:49:59.326Z,23.40
2022-10-14T07:54:59.304Z,22.60
2022-10-14T07:59:59.203Z,23.60
2022-10-14T08:05:18.805Z,21.80
2022-10-14T08:10:00.051Z,23.10
2022-10-14T08:14:59.013Z,21.00
2022-10-14T08:19:58.921Z,22.90
2022-10-14T08:24:58.852Z,21.80
2022-10-14T08:29:58.808Z,22.50
2022-10-14T08:34:58.720Z,23.40
2022-10-14T08:39:58.651Z,21.90
2022-10-14T08:44:58.562Z,23.10
2022-10-14T08:49:58.547Z,23.00
2022-10-14T08:54:58.457Z,22.50
2022-10-14T08:59:58.378Z,22.30
2022-10-14T09:04:58.345Z,22.30
2022-10-14T09:09:58.248Z,22.40
2022-10-14T09:14:58.178Z,20.90
2022-10-14T09:19:58.153Z,22.40
2022-10-14T09:24:58.085Z,21.50
2022-10-14T09:29:57.983Z,18.90
2022-10-14T09:34:57.942Z,19.30
2022-10-14T09:39:57.836Z,19.00
2022-10-14T09:44:57.798Z,20.30
2022-10-14T09:49:57.738Z,20.50
2022-10-14T09:54:57.645Z,21.10
2022-10-14T09:59:57.583Z,19.70
2022-10-14T10:04:57.519Z,19.00
2022-10-14T10:09:57.459Z,17.60
2022-10-14T10:14:57.369Z,16.70
2022-10-14T10:19:57.298Z,16.70
2022-10-14T10:24:57.229Z,17.30
2022-10-14T10:29:57.160Z,15.90
2022-10-14T10:34:57.119Z,13.00
2022-10-14T10:39:57.141Z,15.30
2022-10-14T10:44:56.979Z,14.00
2022-10-14T10:54:56.885Z,13.90
2022-10-14T10:59:56.753Z,13.40
2022-10-14T11:04:56.713Z,14.80
2022-10-14T11:09:56.623Z,12.00
2022-10-14T11:14:56.603Z,12.30
2022-10-14T11:19:56.494Z,12.10
2022-10-14T11:24:56.426Z,11.60
2022-10-14T11:29:56.357Z,11.30
2022-10-14T11:34:56.288Z,11.30
2022-10-14T11:39:56.225Z,11.30
2022-10-14T11:44:56.197Z,11.10
2022-10-14T11:49:56.193Z,10.80
2022-10-14T11:54:56.038Z,11.80
2022-10-14T11:59:55.963Z,10.50
2022-10-14T12:04:55.878Z,10.20
2022-10-14T12:09:59.095Z,11.20
2022-10-14T12:14:55.764Z,8.10
2022-10-14T12:19:55.684Z,8.10
2022-10-14T12:25:02.749Z,7.80
2022-10-14T12:29:55.542Z,7.10
2022-10-14T12:34:55.470Z,7.10
2022-10-14T12:39:55.412Z,6.00
2022-10-14T12:44:55.364Z,4.80
2022-10-14T12:49:55.472Z,4.90
2022-10-14T12:54:55.221Z,4.50
2022-10-14T12:59:55.143Z,4.80
2022-10-14T13:04:55.111Z,3.70
2022-10-14T13:09:55.044Z,4.10
2022-10-14T13:14:54.953Z,7.20
2022-10-14T13:19:54.884Z,9.40
2022-10-14T13:24:54.828Z,9.50
2022-10-14T13:29:54.828Z,9.40
2022-10-14T13:34:54.792Z,9.50
2022-10-14T13:39:54.633Z,11.00
2022-10-14T13:44:54.561Z,10.80
2022-10-14T13:49:54.488Z,13.50
2022-10-14T13:54:54.586Z,13.90
2022-10-14T14:04:55.279Z,16.40
2022-10-14T14:09:54.220Z,16.40
2022-10-14T14:14:54.158Z,18.40
2022-10-14T14:19:54.095Z,18.10
2022-10-14T14:24:54.012Z,17.70
2022-10-14T14:29:53.941Z,19.00
2022-10-14T14:39:53.829Z,20.90
2022-10-14T14:44:53.788Z,20.10
2022-10-14T14:50:01.566Z,20.90
2022-10-14T14:54:54.748Z,19.30
2022-10-14T14:59:53.586Z,19.90
2022-10-14T15:04:53.517Z,20.00
2022-10-14T15:09:53.461Z,21.10
2022-10-14T15:14:53.458Z,20.20
2022-10-14T15:19:53.305Z,20.00
2022-10-14T15:24:53.291Z,19.20
2022-10-14T15:29:53.149Z,19.50
2022-10-14T15:34:53.105Z,17.10
2022-10-14T15:39:53.016Z,16.70
2022-10-14T15:44:53.008Z,17.00
2022-10-14T15:49:53.030Z,16.60
2022-10-14T15:54:52.818Z,16.90
2022-10-14T15:59:52.941Z,16.10
2022-10-14T16:05:21.296Z,16.70
2022-10-14T16:09:53.601Z,16.60
2022-10-14T16:14:52.599Z,17.00
2022-10-14T16:19:52.482Z,18.00
2022-10-14T16:24:52.401Z,17.80
2022-10-14T16:29:52.350Z,17.80
2022-10-14T16:34:52.287Z,16.30
2022-10-14T16:39:52.224Z,17.60
2022-10-14T16:44:52.204Z,17.20
2022-10-14T16:49:52.107Z,17.50
2022-10-14T16:54:52.048Z,15.40
2022-10-14T16:59:51.952Z,15.50
2022-10-14T17:04:51.897Z,18.10
2022-10-14T17:09:51.849Z,18.40
2022-10-14T17:14:55.735Z,19.50
2022-10-14T17:19:51.676Z,21.30
2022-10-14T17:24:51.597Z,21.60
2022-10-14T17:29:51.588Z,22.90
2022-10-14T17:34:53.474Z,22.30
2022-10-14T17:39:51.454Z,24.10
2022-10-14T17:44:51.365Z,22.60
2022-10-14T17:49:51.275Z,23.20
2022-10-14T17:54:51.214Z,20.80
2022-10-14T17:59:51.244Z,19.60
2022-10-14T18:04:51.068Z,19.20
2022-10-14T18:09:51.186Z,18.40
2022-10-14T18:14:50.944Z,17.70
2022-10-14T18:19:52.424Z,17.00
2022-10-14T18:24:50.866Z,16.60
2022-10-14T18:29:50.720Z,16.20
2022-10-14T18:34:50.651Z,15.50
2022-10-14T18:39:50.618Z,14.80
2022-10-14T18:44:50.545Z,14.90
2022-10-14T18:49:50.451Z,14.00
2022-10-14T18:54:50.402Z,13.80
2022-10-14T18:59:50.333Z,13.50
2022-10-14T19:04:50.266Z,13.60
2022-10-14T19:09:51.914Z,13.60
2022-10-14T19:14:50.132Z,13.20
2022-10-14T19:19:50.071Z,12.90
2022-10-14T19:24:50.000Z,13.30
2022-10-14T19:29:49.889Z,12.10
2022-10-14T19:34:49.877Z,12.00
2022-10-14T19:39:49.777Z,12.40
2022-10-14T19:44:49.685Z,12.20
2022-10-14T19:49:56.721Z,12.40
2022-10-14T19:54:49.531Z,11.90
2022-10-14T19:59:49.475Z,12.60
2022-10-14T20:04:49.411Z,11.80
2022-10-14T20:09:49.386Z,11.50
2022-10-14T20:14:49.279Z,11.80
2022-10-14T20:19:49.241Z,11.40
2022-10-14T20:24:49.153Z,10.90
2022-10-14T20:29:49.063Z,11.50
2022-10-14T20:34:48.995Z,11.10
2022-10-14T20:39:48.985Z,11.10
2022-10-14T20:44:48.892Z,11.80
2022-10-14T20:49:48.822Z,10.80
2022-10-14T20:54:48.765Z,11.40
2022-10-14T20:59:48.665Z,11.20
2022-10-14T21:04:48.605Z,10.50
2022-10-14T21:09:48.577Z,10.60
2022-10-14T21:14:48.495Z,10.90
2022-10-14T21:19:48.433Z,10.40
2022-10-14T21:24:48.538Z,10.00
2022-10-14T21:29:48.306Z,10.30
2022-10-14T21:34:48.345Z,9.90
2022-10-14T21:39:48.197Z,9.80
2022-10-14T21:44:48.183Z,9.00
2022-10-14T21:49:48.060Z,9.60
2022-10-14T21:54:48.258Z,9.30
2022-10-14T21:59:47.911Z,9.00
2022-10-14T22:04:47.844Z,9.20
2022-10-14T22:09:47.860Z,8.90
2022-10-14T22:14:47.767Z,9.10
2022-10-14T22:19:47.636Z,9.00
2022-10-14T22:24:47.582Z,9.50
2022-10-14T22:29:47.665Z,8.40
2022-10-14T22:34:47.425Z,8.40
2022-10-14T22:39:47.356Z,8.20
2022-10-14T22:44:47.284Z,8.20
2022-10-14T22:49:47.226Z,7.40
2022-10-14T22:54:47.136Z,7.40
2022-10-14T22:59:47.117Z,7.50
2022-10-14T23:04:47.016Z,7.70
2022-10-14T23:09:47.012Z,7.40
2022-10-14T23:14:46.883Z,7.40
2022-10-14T23:19:46.829Z,8.30
2022-10-14T23:24:46.758Z,8.10
2022-10-14T23:29:46.680Z,7.60
2022-10-14T23:34:54.270Z,7.90
2022-10-14T23:39:46.529Z,7.80
2022-10-14T23:44:46.486Z,7.80
2022-10-14T23:49:46.409Z,8.00
2022-10-14T23:54:46.442Z,7.50
2022-10-14T23:59:46.396Z,7.30
